This is the latest recevied weather packets stored in our database for station/object KE0LFX. If no packets are shown the sender has not sent any weather packets the latest 10 day(s).
| Time | Temp. | Humidity | Pressure | Rain* | Wind** | Luminosity | Snow |
|---|---|---|---|---|---|---|---|
| 1777336809 | 15° C | 89% | 1006.6 hPa | 0 mm | - | 0 W/m² | - |
| 1777336508 | 15° C | 90% | 1006.7 hPa | 0 mm | - | 3 W/m² | - |
| 1777336205 | 15° C | 90% | 1006.6 hPa | 0 mm | - | 2 W/m² | - |
| 1777335903 | 15° C | 89% | 1006.5 hPa | 0 mm | - | 3 W/m² | - |
| 1777335599 | 15° C | 90% | 1006.4 hPa | 0 mm | - | 5 W/m² | - |
| 1777335297 | 15.56° C | 90% | 1006.7 hPa | 0 mm | - | 6 W/m² | - |
| 1777334995 | 15.56° C | 90% | 1006.5 hPa | 0 mm | - | 11 W/m² | - |
| 1777334691 | 15.56° C | 89% | 1006.4 hPa | 0 mm | - | 16 W/m² | - |
| 1777334389 | 16.11° C | 89% | 1006.1 hPa | 0 mm | - | 17 W/m² | - |
| 1777334085 | 16.11° C | 90% | 1006.1 hPa | 0 mm | - | 24 W/m² | - |
| 1777333779 | 16.11° C | 91% | 1005.9 hPa | 0 mm | - | 49 W/m² | - |
| 1777333477 | 15.56° C | 93% | 1005.7 hPa | 0 mm | - | 48 W/m² | - |
| 1777333174 | 16.11° C | 94% | 1005.5 hPa | 0 mm | - | 58 W/m² | - |
| 1777332872 | 16.11° C | 94% | 1005.8 hPa | 0 mm | - | 44 W/m² | - |
| 1777332569 | 16.11° C | 94% | 1005.9 hPa | 0 mm | - | 32 W/m² | - |
| 1777332266 | 16.11° C | 94% | 1006.2 hPa | 0 mm | - | 47 W/m² | - |
| 1777331962 | 16.11° C | 95% | 1006 hPa | 0 mm | - | 64 W/m² | - |
| 1777331660 | 16.67° C | 95% | 1006.1 hPa | 0 mm | - | 59 W/m² | - |
| 1777331357 | 17.22° C | 96% | 1005.9 hPa | 0 mm | - | 27 W/m² | - |
| 1777331054 | 17.22° C | 96% | 1006.1 hPa | 0 mm | - | 43 W/m² | - |
| 1777330751 | 17.22° C | 95% | 1005.5 hPa | 21.08 mm | - | 47 W/m² | - |
| 1777330448 | 17.22° C | 94% | 1005.9 hPa | 31.75 mm | - | 104 W/m² | - |
| 1777330146 | 20° C | 85% | 1006 hPa | 8.89 mm | - | 75 W/m² | - |
| 1777329844 | 20° C | 77% | 1005.1 hPa | 0 mm | - | 20 W/m² | - |
| 1777329542 | 20° C | 76% | 1004.9 hPa | 0 mm | - | 34 W/m² | - |
* Rain latest hour (hover to see other rain measurements)
** Current wind speed in m/s (hover to see current wind gust speed)